Time;durP1;ratioP1;P1;durP2;ratioP2;P2;SDS_P1;SDS_P2;PMS_P1;PMS_P2;Temp;Humidity;BMP_temperature;BMP_pressure;BME280_temperature;BME280_humidity;BME280_pressure;Samples;Min_cycle;Max_cycle;Signal;HPM_P1;HPM_P2
2023/08/11 00:00:36;;;;;;;;;;;20.70;78.90;;;;;;5070121;28;19912;-84
2023/08/11 00:03:05;;;;;;;;;;;20.70;78.90;;;;;;5070258;28;19927;-83
2023/08/11 00:05:33;;;;;;;;;;;20.80;79.00;;;;;;5069146;28;20429;-84
2023/08/11 00:07:58;;;;;;;;;;;20.70;78.90;;;;;;5070797;28;20341;-83
2023/08/11 00:10:25;;;;;;;;;;;20.70;78.90;;;;;;5068980;28;19918;-83
2023/08/11 00:12:51;;;;;;;;;;;20.60;78.90;;;;;;5068901;28;20388;-83
2023/08/11 00:15:18;;;;;;;;;;;20.60;79.00;;;;;;5070233;28;19920;-82
2023/08/11 00:17:43;;;;;;;;;;;20.60;78.90;;;;;;5080625;28;19912;-83
2023/08/11 00:20:09;;;;;;;;;;;20.50;78.90;;;;;;5075496;28;19995;-82
2023/08/11 00:22:35;;;;;;;;;;;20.50;78.90;;;;;;5069316;28;19980;-83
2023/08/11 00:25:01;;;;;;;;;;;20.50;78.90;;;;;;5068704;28;19974;-82
2023/08/11 00:27:27;;;;;;;;;;;20.50;78.80;;;;;;5070011;28;20360;-82
2023/08/11 00:29:54;;;;;;;;;;;20.50;78.80;;;;;;5068862;28;19917;-83
2023/08/11 00:32:19;;;;;;;;;;;20.50;78.90;;;;;;5052246;28;19913;-83
2023/08/11 00:34:47;;;;;;;;;;;20.40;78.80;;;;;;5068695;28;19908;-84
2023/08/11 00:37:13;;;;;;;;;;;20.40;78.80;;;;;;5052048;28;19959;-84
2023/08/11 00:39:38;;;;;;;;;;;20.40;78.80;;;;;;5051825;28;20379;-84
2023/08/11 00:42:04;;;;;;;;;;;20.30;78.80;;;;;;5068549;28;19961;-83
2023/08/11 00:44:30;;;;;;;;;;;20.30;78.80;;;;;;5068550;28;19920;-82
2023/08/11 00:46:55;;;;;;;;;;;20.30;78.90;;;;;;5068759;28;20262;-81
2023/08/11 00:49:21;;;;;;;;;;;20.20;78.80;;;;;;5069616;28;20011;-81
2023/08/11 00:51:46;;;;;;;;;;;20.10;78.80;;;;;;5067894;28;19935;-82
2023/08/11 00:54:13;;;;;;;;;;;20.10;78.90;;;;;;5069495;28;19916;-82
2023/08/11 00:56:44;;;;;;;;;;;20.00;78.80;;;;;;5051359;28;19912;-82
2023/08/11 00:59:11;;;;;;;;;;;19.90;78.80;;;;;;5069213;28;19916;-83
2023/08/11 01:01:36;;;;;;;;;;;19.90;78.80;;;;;;5069321;28;20272;-83
2023/08/11 01:04:04;;;;;;;;;;;19.80;78.70;;;;;;5069008;28;19967;-83
2023/08/11 01:06:42;;;;;;;;;;;19.70;78.70;;;;;;5051379;28;20392;-84
2023/08/11 01:09:11;;;;;;;;;;;19.60;78.60;;;;;;5067715;28;19909;-82
2023/08/11 01:11:44;;;;;;;;;;;19.50;78.70;;;;;;5067928;28;19913;-83
2023/08/11 01:14:30;;;;;;;;;;;19.40;78.70;;;;;;5067695;28;19919;-82
2023/08/11 01:16:58;;;;;;;;;;;19.30;78.80;;;;;;5069037;28;19909;-83
2023/08/11 01:19:26;;;;;;;;;;;19.10;78.80;;;;;;5067599;28;19912;-83
2023/08/11 01:21:53;;;;;;;;;;;19.00;78.80;;;;;;5067440;28;20007;-83
2023/08/11 01:24:19;;;;;;;;;;;19.00;78.90;;;;;;5069070;28;19909;-82
2023/08/11 01:26:46;;;;;;;;;;;18.90;78.90;;;;;;5067659;28;19923;-83
2023/08/11 01:29:11;;;;;;;;;;;18.80;78.90;;;;;;5050706;28;19952;-83
2023/08/11 01:31:37;;;;;;;;;;;18.70;78.90;;;;;;5068766;28;19951;-83
2023/08/11 01:34:03;;;;;;;;;;;18.70;78.90;;;;;;5068996;28;19913;-83
2023/08/11 01:36:28;;;;;;;;;;;18.60;78.90;;;;;;5067501;28;19915;-82
2023/08/11 01:38:54;;;;;;;;;;;18.60;78.90;;;;;;5050582;28;20323;-82
2023/08/11 01:41:20;;;;;;;;;;;18.50;78.90;;;;;;5050510;28;19920;-83
2023/08/11 01:43:46;;;;;;;;;;;18.50;78.90;;;;;;5050683;28;20404;-82
2023/08/11 01:46:12;;;;;;;;;;;18.40;78.80;;;;;;5050509;28;20284;-82
2023/08/11 01:48:38;;;;;;;;;;;18.40;78.80;;;;;;5067058;28;19912;-82
2023/08/11 01:51:04;;;;;;;;;;;18.30;78.80;;;;;;5067012;28;19916;-82
2023/08/11 01:53:29;;;;;;;;;;;18.30;78.80;;;;;;5050456;28;19912;-82
2023/08/11 01:55:55;;;;;;;;;;;18.20;78.80;;;;;;5057498;28;19920;-82
2023/08/11 01:58:21;;;;;;;;;;;18.20;78.80;;;;;;5070905;28;20342;-82
2023/08/11 02:00:46;;;;;;;;;;;18.20;78.80;;;;;;5050398;28;20328;-82
2023/08/11 02:03:12;;;;;;;;;;;18.10;78.80;;;;;;5066125;28;19932;-82
2023/08/11 02:05:38;;;;;;;;;;;18.10;78.70;;;;;;5066863;28;19908;-82
2023/08/11 02:08:04;;;;;;;;;;;18.10;78.70;;;;;;5066982;28;19913;-82
2023/08/11 02:10:29;;;;;;;;;;;18.00;78.60;;;;;;5050521;28;19934;-82
2023/08/11 02:12:55;;;;;;;;;;;17.90;78.60;;;;;;5049999;28;20549;-82
2023/08/11 02:15:21;;;;;;;;;;;17.90;78.60;;;;;;5066724;28;20026;-81
2023/08/11 02:17:46;;;;;;;;;;;17.90;78.60;;;;;;5066692;28;19958;-82
2023/08/11 02:20:20;;;;;;;;;;;17.90;78.70;;;;;;5068130;28;19913;-83
2023/08/11 02:22:46;;;;;;;;;;;17.70;78.60;;;;;;5066785;28;19932;-82
2023/08/11 02:25:12;;;;;;;;;;;17.70;78.60;;;;;;5050048;28;19921;-82
2023/08/11 02:27:38;;;;;;;;;;;17.70;78.70;;;;;;5066697;28;19908;-82
2023/08/11 02:30:05;;;;;;;;;;;17.70;78.70;;;;;;5049953;28;19948;-82
2023/08/11 02:32:31;;;;;;;;;;;17.70;78.70;;;;;;5066843;28;19982;-83
2023/08/11 02:34:56;;;;;;;;;;;17.60;78.70;;;;;;5050127;28;20343;-82
2023/08/11 02:37:22;;;;;;;;;;;17.60;78.70;;;;;;5050012;28;20394;-81
2023/08/11 02:39:47;;;;;;;;;;;17.60;78.70;;;;;;5067968;28;19916;-83
2023/08/11 02:42:13;;;;;;;;;;;17.60;78.70;;;;;;5050017;28;19967;-83
2023/08/11 02:44:39;;;;;;;;;;;17.60;78.70;;;;;;5066772;28;19919;-83
2023/08/11 02:47:05;;;;;;;;;;;17.50;78.70;;;;;;5067787;28;20003;-82
2023/08/11 02:49:30;;;;;;;;;;;17.50;78.70;;;;;;5067811;28;20019;-81
2023/08/11 02:51:56;;;;;;;;;;;17.50;78.70;;;;;;5049882;28;19913;-81
2023/08/11 02:54:21;;;;;;;;;;;17.50;78.70;;;;;;5049764;28;19912;-82
2023/08/11 02:56:48;;;;;;;;;;;17.40;78.70;;;;;;5066603;28;20280;-82
2023/08/11 02:59:13;;;;;;;;;;;17.40;78.60;;;;;;5066252;28;19912;-83
2023/08/11 03:01:39;;;;;;;;;;;17.40;78.70;;;;;;5066286;28;19919;-82
2023/08/11 03:04:05;;;;;;;;;;;17.40;78.60;;;;;;5066241;28;19938;-83
2023/08/11 03:06:31;;;;;;;;;;;17.40;78.70;;;;;;5066847;28;19913;-83
2023/08/11 03:08:56;;;;;;;;;;;17.30;78.60;;;;;;5067749;28;20319;-83
2023/08/11 03:11:22;;;;;;;;;;;17.30;78.60;;;;;;5066523;28;19919;-83
2023/08/11 03:13:48;;;;;;;;;;;17.30;78.60;;;;;;5067046;28;20009;-84
2023/08/11 03:16:13;;;;;;;;;;;17.20;78.60;;;;;;5070147;28;20291;-82
2023/08/11 03:18:39;;;;;;;;;;;17.20;79.10;;;;;;5053398;28;19917;-82
2023/08/11 03:21:05;;;;;;;;;;;17.20;78.70;;;;;;5053507;28;19925;-82
2023/08/11 03:23:30;;;;;;;;;;;17.20;78.70;;;;;;5071325;28;19966;-83
2023/08/11 03:25:56;;;;;;;;;;;17.10;78.60;;;;;;5069766;28;20402;-82
2023/08/11 03:28:21;;;;;;;;;;;17.10;78.70;;;;;;5069906;28;19912;-83
2023/08/11 03:30:47;;;;;;;;;;;17.10;78.70;;;;;;5069920;28;20424;-82
2023/08/11 03:33:13;;;;;;;;;;;17.10;78.70;;;;;;5066457;28;19974;-82
2023/08/11 03:35:38;;;;;;;;;;;17.00;78.60;;;;;;5074764;28;20054;-82
2023/08/11 03:38:04;;;;;;;;;;;17.00;78.70;;;;;;5053172;28;19981;-82
2023/08/11 03:40:30;;;;;;;;;;;17.00;78.70;;;;;;5069841;28;19961;-82
2023/08/11 03:42:55;;;;;;;;;;;17.00;78.60;;;;;;5052888;28;20368;-83
2023/08/11 03:45:21;;;;;;;;;;;17.00;78.70;;;;;;5071351;28;20372;-81
2023/08/11 03:47:46;;;;;;;;;;;17.00;78.60;;;;;;5069416;28;19914;-82
2023/08/11 03:50:12;;;;;;;;;;;17.00;78.60;;;;;;5069496;28;19908;-81
2023/08/11 03:52:38;;;;;;;;;;;16.90;78.60;;;;;;5069414;28;19919;-83
2023/08/11 03:55:05;;;;;;;;;;;16.90;78.60;;;;;;5070707;28;19909;-82
2023/08/11 03:57:30;;;;;;;;;;;16.90;78.60;;;;;;5070431;28;19917;-81
2023/08/11 03:59:56;;;;;;;;;;;16.80;78.60;;;;;;5070379;28;19917;-81
2023/08/11 04:02:22;;;;;;;;;;;16.80;78.60;;;;;;5070059;28;20369;-81
2023/08/11 04:04:47;;;;;;;;;;;16.80;78.60;;;;;;5069005;28;19912;-82
2023/08/11 04:07:13;;;;;;;;;;;16.80;78.60;;;;;;5052478;28;19912;-81
2023/08/11 04:09:43;;;;;;;;;;;16.80;78.60;;;;;;5069319;28;19919;-81
2023/08/11 04:12:09;;;;;;;;;;;16.80;78.60;;;;;;5053124;28;20276;-81
2023/08/11 04:14:34;;;;;;;;;;;16.80;78.60;;;;;;5052701;28;19921;-83
2023/08/11 04:17:00;;;;;;;;;;;16.80;78.60;;;;;;5052404;28;20501;-82
2023/08/11 04:19:26;;;;;;;;;;;16.80;78.60;;;;;;5068961;28;19932;-82
2023/08/11 04:21:51;;;;;;;;;;;16.80;78.60;;;;;;5069157;28;19913;-82
2023/08/11 04:24:17;;;;;;;;;;;16.80;78.60;;;;;;5052551;28;20276;-82
2023/08/11 04:26:43;;;;;;;;;;;16.80;78.50;;;;;;5051401;28;19924;-82
2023/08/11 04:29:10;;;;;;;;;;;16.70;78.50;;;;;;5068991;28;19912;-82
2023/08/11 04:31:36;;;;;;;;;;;16.70;78.50;;;;;;5068748;28;20066;-82
2023/08/11 04:34:03;;;;;;;;;;;16.70;78.50;;;;;;5069117;28;19962;-82
2023/08/11 04:36:29;;;;;;;;;;;16.70;78.50;;;;;;5070183;28;19916;-83
2023/08/11 04:38:55;;;;;;;;;;;16.60;78.50;;;;;;5068815;28;19913;-83
2023/08/11 04:41:20;;;;;;;;;;;16.60;78.50;;;;;;5070380;28;19927;-82
2023/08/11 04:43:46;;;;;;;;;;;16.60;78.50;;;;;;5053796;28;19939;-81
2023/08/11 04:46:11;;;;;;;;;;;16.60;78.50;;;;;;5052463;28;20011;-82
2023/08/11 04:48:37;;;;;;;;;;;16.60;78.50;;;;;;5068028;28;19924;-81
2023/08/11 04:51:03;;;;;;;;;;;16.60;78.60;;;;;;5051760;28;19913;-82
2023/08/11 04:53:28;;;;;;;;;;;16.60;78.60;;;;;;5068233;28;19970;-83
2023/08/11 04:55:54;;;;;;;;;;;16.50;78.50;;;;;;5069515;28;20361;-81
2023/08/11 04:58:20;;;;;;;;;;;16.50;78.50;;;;;;5051484;28;19958;-82
2023/08/11 05:00:45;;;;;;;;;;;16.50;78.60;;;;;;5051678;28;20425;-82
2023/08/11 05:03:11;;;;;;;;;;;16.50;78.60;;;;;;5069094;28;19947;-83
2023/08/11 05:05:36;;;;;;;;;;;16.50;78.60;;;;;;5051363;28;20241;-82
2023/08/11 05:08:02;;;;;;;;;;;16.50;78.60;;;;;;5068112;28;19913;-75
2023/08/11 05:10:28;;;;;;;;;;;16.50;78.60;;;;;;5084520;28;19943;-82
2023/08/11 05:12:53;;;;;;;;;;;16.50;78.60;;;;;;5068081;28;19912;-82
2023/08/11 05:15:19;;;;;;;;;;;16.50;78.60;;;;;;5067939;28;20284;-82
2023/08/11 05:17:45;;;;;;;;;;;16.50;78.60;;;;;;5067886;28;19915;-83
2023/08/11 05:20:11;;;;;;;;;;;16.60;78.60;;;;;;5068663;28;19912;-83
2023/08/11 05:22:36;;;;;;;;;;;16.60;78.60;;;;;;5067604;28;19919;-82
2023/08/11 05:25:03;;;;;;;;;;;16.60;78.60;;;;;;5069010;28;19917;-82
2023/08/11 05:27:28;;;;;;;;;;;16.70;78.60;;;;;;5067671;28;20259;-81
2023/08/11 05:29:54;;;;;;;;;;;16.70;78.60;;;;;;5068872;28;20424;-76
2023/08/11 05:32:19;;;;;;;;;;;16.80;78.60;;;;;;5068946;28;19924;-82
2023/08/11 05:34:45;;;;;;;;;;;16.80;78.60;;;;;;5067631;28;19922;-83
2023/08/11 05:37:12;;;;;;;;;;;16.80;78.60;;;;;;5067724;28;19946;-81
2023/08/11 05:39:38;;;;;;;;;;;16.90;78.60;;;;;;5067417;28;20407;-83
2023/08/11 05:42:05;;;;;;;;;;;16.90;78.50;;;;;;5050714;28;19916;-81
2023/08/11 05:44:31;;;;;;;;;;;17.00;78.50;;;;;;5067824;28;19908;-81
2023/08/11 05:46:57;;;;;;;;;;;17.10;78.60;;;;;;5067592;28;19912;-81
2023/08/11 05:49:22;;;;;;;;;;;17.10;78.50;;;;;;5069477;28;19908;-81
2023/08/11 05:51:48;;;;;;;;;;;17.20;78.60;;;;;;5067186;28;19916;-81
2023/08/11 05:54:13;;;;;;;;;;;17.20;78.50;;;;;;5067827;28;19916;-81
2023/08/11 05:56:39;;;;;;;;;;;17.30;78.50;;;;;;5067605;28;19912;-81
2023/08/11 05:59:04;;;;;;;;;;;17.40;78.50;;;;;;5050338;28;20388;-81
2023/08/11 06:01:30;;;;;;;;;;;17.40;78.50;;;;;;5069087;28;19938;-81
2023/08/11 06:03:56;;;;;;;;;;;17.50;78.50;;;;;;5067593;28;19932;-81
2023/08/11 06:06:21;;;;;;;;;;;17.60;78.50;;;;;;5067655;28;19924;-82
2023/08/11 06:08:47;;;;;;;;;;;17.70;78.50;;;;;;5067695;28;19922;-82
2023/08/11 06:11:13;;;;;;;;;;;17.70;78.50;;;;;;5051218;28;19960;-82
2023/08/11 06:13:38;;;;;;;;;;;17.70;78.60;;;;;;5066863;28;20283;-82
2023/08/11 06:16:04;;;;;;;;;;;17.80;78.50;;;;;;5066643;28;19920;-81
2023/08/11 06:18:29;;;;;;;;;;;17.90;78.60;;;;;;5068120;28;19916;-82
2023/08/11 06:20:55;;;;;;;;;;;18.00;78.60;;;;;;5067089;28;19955;-81
2023/08/11 06:23:20;;;;;;;;;;;18.00;78.50;;;;;;5066841;28;20276;-81
2023/08/11 06:25:46;;;;;;;;;;;18.10;78.50;;;;;;5066870;28;20276;-82
2023/08/11 06:28:12;;;;;;;;;;;18.20;78.50;;;;;;5068052;28;19909;-82
2023/08/11 06:30:38;;;;;;;;;;;18.40;78.90;;;;;;5067091;28;19913;-83
2023/08/11 06:33:03;;;;;;;;;;;18.80;78.70;;;;;;5050186;28;19973;-81
2023/08/11 06:35:29;;;;;;;;;;;19.10;78.30;;;;;;5066737;28;19913;-84
2023/08/11 06:37:55;;;;;;;;;;;19.30;77.80;;;;;;5066453;28;20112;-81
2023/08/11 06:40:21;;;;;;;;;;;19.40;77.70;;;;;;5066883;28;19921;-83
2023/08/11 06:42:46;;;;;;;;;;;19.50;77.80;;;;;;5067248;28;19912;-81
2023/08/11 06:45:12;;;;;;;;;;;19.60;77.80;;;;;;5059943;28;19935;-83
2023/08/11 06:47:37;;;;;;;;;;;19.60;78.00;;;;;;5072894;28;20011;-80
2023/08/11 06:50:03;;;;;;;;;;;19.60;78.00;;;;;;5052711;28;19919;-82
2023/08/11 06:52:29;;;;;;;;;;;19.50;78.10;;;;;;5070533;28;19921;-82
2023/08/11 06:54:54;;;;;;;;;;;19.40;78.20;;;;;;5053766;28;19999;-81
2023/08/11 06:57:20;;;;;;;;;;;19.50;78.40;;;;;;5070731;28;19913;-82
2023/08/11 06:59:49;;;;;;;;;;;19.50;78.50;;;;;;5070365;28;19960;-82
2023/08/11 07:02:14;;;;;;;;;;;19.50;78.50;;;;;;5071628;28;19919;-83
2023/08/11 07:04:40;;;;;;;;;;;19.60;78.60;;;;;;5070531;28;20011;-82
2023/08/11 07:07:06;;;;;;;;;;;19.70;78.60;;;;;;5072492;28;19913;-78
2023/08/11 07:09:32;;;;;;;;;;;19.80;78.50;;;;;;5070225;28;19999;-83
2023/08/11 07:11:58;;;;;;;;;;;20.00;78.40;;;;;;5071521;28;19924;-82
2023/08/11 07:14:23;;;;;;;;;;;20.00;78.30;;;;;;5053334;28;19912;-82
2023/08/11 07:16:49;;;;;;;;;;;20.10;78.20;;;;;;5053580;28;19917;-83
2023/08/11 07:19:14;;;;;;;;;;;20.10;78.20;;;;;;5070115;28;20194;-82
2023/08/11 07:21:40;;;;;;;;;;;20.20;78.50;;;;;;5053142;28;19923;-83
2023/08/11 07:24:06;;;;;;;;;;;20.70;79.30;;;;;;5071196;28;20050;-83
2023/08/11 07:26:31;;;;;;;;;;;21.30;78.60;;;;;;5053391;28;20294;-82
2023/08/11 07:28:57;;;;;;;;;;;21.70;78.00;;;;;;5069508;28;19996;-82
2023/08/11 07:31:23;;;;;;;;;;;21.90;77.70;;;;;;5069891;28;20461;-81
2023/08/11 07:33:48;;;;;;;;;;;22.10;77.70;;;;;;5072215;28;20067;-81
2023/08/11 07:36:14;;;;;;;;;;;22.40;78.20;;;;;;5071179;28;19970;-82
2023/08/11 07:38:39;;;;;;;;;;;23.30;78.90;;;;;;5070351;28;19916;-84
2023/08/11 07:41:05;;;;;;;;;;;24.20;77.90;;;;;;5071555;28;19955;-83
2023/08/11 07:43:31;;;;;;;;;;;24.90;77.40;;;;;;5070059;28;19912;-84
2023/08/11 07:45:56;;;;;;;;;;;25.60;77.20;;;;;;5071040;28;20328;-84
2023/08/11 07:48:22;;;;;;;;;;;26.30;77.00;;;;;;5069711;28;20366;-86
2023/08/11 07:50:48;;;;;;;;;;;26.80;76.80;;;;;;5070152;28;19912;-84
2023/08/11 07:53:13;;;;;;;;;;;27.30;76.90;;;;;;5070808;28;19913;-83
2023/08/11 07:55:40;;;;;;;;;;;27.70;76.80;;;;;;5071125;28;19916;-81
2023/08/11 07:58:06;;;;;;;;;;;28.10;76.80;;;;;;5070835;28;20014;-83
2023/08/11 08:00:32;;;;;;;;;;;28.50;77.40;;;;;;5068418;28;19999;-84
2023/08/11 08:02:58;;;;;;;;;;;28.70;76.70;;;;;;5071366;28;19932;-82
2023/08/11 08:05:23;;;;;;;;;;;28.80;77.20;;;;;;5071300;28;20402;-83
2023/08/11 08:07:49;;;;;;;;;;;29.10;77.50;;;;;;5071121;28;19920;-83
2023/08/11 08:10:15;;;;;;;;;;;29.60;77.60;;;;;;5071319;28;19974;-82
2023/08/11 08:12:42;;;;;;;;;;;29.90;77.60;;;;;;5071712;28;20317;-83
2023/08/11 08:15:09;;;;;;;;;;;30.50;77.80;;;;;;5069704;28;19916;-83
2023/08/11 08:17:35;;;;;;;;;;;30.70;77.50;;;;;;5052652;28;20296;-84
2023/08/11 08:20:01;;;;;;;;;;;31.10;77.50;;;;;;5070109;28;19919;-84
2023/08/11 08:22:26;;;;;;;;;;;31.30;77.20;;;;;;5086855;28;19907;-82
2023/08/11 08:24:52;;;;;;;;;;;31.50;77.40;;;;;;5053807;28;19920;-84
2023/08/11 08:27:23;;;;;;;;;;;31.50;76.80;;;;;;5070623;28;20288;-82
2023/08/11 08:29:49;;;;;;;;;;;31.10;77.00;;;;;;5052474;28;19916;-83
2023/08/11 08:32:15;;;;;;;;;;;31.10;78.00;;;;;;5050748;28;19976;-84
2023/08/11 08:34:40;;;;;;;;;;;31.00;77.80;;;;;;5051816;28;20318;-82
2023/08/11 08:37:06;;;;;;;;;;;31.10;77.80;;;;;;5069124;28;20335;-76
2023/08/11 08:39:31;;;;;;;;;;;31.30;78.10;;;;;;5068819;28;19913;-81
2023/08/11 08:41:58;;;;;;;;;;;31.50;77.90;;;;;;5051877;28;19958;-82
2023/08/11 08:44:25;;;;;;;;;;;31.70;77.70;;;;;;5068138;28;19909;-82
2023/08/11 08:46:52;;;;;;;;;;;31.80;77.80;;;;;;5069190;28;19939;-82
2023/08/11 08:49:22;;;;;;;;;;;31.70;77.60;;;;;;5067751;28;20376;-80
2023/08/11 08:51:48;;;;;;;;;;;31.60;77.80;;;;;;5070794;28;20007;-80
2023/08/11 08:54:13;;;;;;;;;;;31.60;78.00;;;;;;5079933;28;19947;-81
2023/08/11 08:56:39;;;;;;;;;;;31.60;78.60;;;;;;5072172;28;19909;-81
2023/08/11 08:59:06;;;;;;;;;;;31.60;78.80;;;;;;5071745;28;19913;-81
2023/08/11 09:01:32;;;;;;;;;;;31.10;78.10;;;;;;5069864;28;19989;-80
2023/08/11 09:03:58;;;;;;;;;;;30.90;79.10;;;;;;5069924;28;20430;-84
2023/08/11 09:06:25;;;;;;;;;;;31.50;79.80;;;;;;5069294;28;19969;-83
2023/08/11 09:08:50;;;;;;;;;;;32.10;79.40;;;;;;5076880;28;19919;-79
2023/08/11 09:11:16;;;;;;;;;;;32.50;79.10;;;;;;5088600;28;19912;-80
2023/08/11 09:13:43;;;;;;;;;;;32.80;79.00;;;;;;5090502;28;20000;-78
2023/08/11 09:16:09;;;;;;;;;;;33.10;79.10;;;;;;5087337;28;19915;-79
2023/08/11 09:18:35;;;;;;;;;;;33.50;79.00;;;;;;5072068;28;19912;-81
2023/08/11 09:21:02;;;;;;;;;;;33.50;78.60;;;;;;5089426;28;19908;-82
2023/08/11 09:23:28;;;;;;;;;;;33.60;78.90;;;;;;5085078;28;20357;-80
2023/08/11 09:25:56;;;;;;;;;;;33.30;78.50;;;;;;5073371;28;19918;-80
2023/08/11 09:28:21;;;;;;;;;;;32.80;78.00;;;;;;5079138;28;19913;-81
2023/08/11 09:30:48;;;;;;;;;;;32.30;78.60;;;;;;5075437;28;19967;-79
2023/08/11 09:33:14;;;;;;;;;;;32.00;78.50;;;;;;5070679;28;19909;-80
2023/08/11 09:35:41;;;;;;;;;;;31.90;79.20;;;;;;5088723;28;19912;-83
2023/08/11 09:38:07;;;;;;;;;;;32.10;79.10;;;;;;5090028;28;19908;-82
2023/08/11 09:40:32;;;;;;;;;;;31.90;78.80;;;;;;5088715;28;19919;-82
2023/08/11 09:42:58;;;;;;;;;;;31.60;78.80;;;;;;5090591;28;20049;-82
2023/08/11 09:45:24;;;;;;;;;;;31.60;79.60;;;;;;5088790;28;19916;-81
2023/08/11 09:47:49;;;;;;;;;;;32.50;80.30;;;;;;5088725;28;19920;-81
2023/08/11 09:50:15;;;;;;;;;;;32.60;79.40;;;;;;5088956;28;20339;-81
2023/08/11 09:52:42;;;;;;;;;;;33.00;79.80;;;;;;5091259;28;19916;-81
2023/08/11 09:55:09;;;;;;;;;;;32.80;78.70;;;;;;5090105;28;20403;-80
2023/08/11 09:57:36;;;;;;;;;;;31.90;78.10;;;;;;5093229;28;19908;-80
2023/08/11 10:00:03;;;;;;;;;;;31.30;79.20;;;;;;5091680;28;19908;-80
2023/08/11 10:02:30;;;;;;;;;;;31.60;80.50;;;;;;5091742;28;20356;-81
2023/08/11 10:04:58;;;;;;;;;;;31.60;79.40;;;;;;5090411;28;19909;-78
2023/08/11 10:07:29;;;;;;;;;;;31.20;79.20;;;;;;5090126;28;19908;-81
2023/08/11 10:09:55;;;;;;;;;;;31.00;79.70;;;;;;5090980;28;19908;-82
2023/08/11 10:12:21;;;;;;;;;;;31.40;80.60;;;;;;5089347;28;19923;-82
2023/08/11 10:14:47;;;;;;;;;;;31.90;80.80;;;;;;5089229;28;19915;-81
2023/08/11 10:17:12;;;;;;;;;;;32.40;80.30;;;;;;5090403;28;19912;-77
2023/08/11 10:19:38;;;;;;;;;;;33.00;80.20;;;;;;5089645;28;19912;-79
2023/08/11 10:22:04;;;;;;;;;;;33.80;80.20;;;;;;5087539;28;19954;-83
2023/08/11 10:24:30;;;;;;;;;;;34.30;79.40;;;;;;5088170;28;19920;-81
2023/08/11 10:26:55;;;;;;;;;;;34.60;79.10;;;;;;5088557;28;20313;-82
2023/08/11 10:29:21;;;;;;;;;;;34.20;77.90;;;;;;5087968;28;19923;-77
2023/08/11 10:31:54;;;;;;;;;;;33.90;78.40;;;;;;5089126;28;20249;-81
2023/08/11 10:34:23;;;;;;;;;;;33.50;78.40;;;;;;5088892;28;20362;-79
2023/08/11 10:36:50;;;;;;;;;;;33.20;78.50;;;;;;5089098;28;19942;-79
2023/08/11 10:39:17;;;;;;;;;;;33.10;79.00;;;;;;5089031;28;19984;-79
2023/08/11 10:41:46;;;;;;;;;;;33.20;79.30;;;;;;5089482;28;20074;-84
2023/08/11 10:44:15;;;;;;;;;;;33.30;79.10;;;;;;5091464;28;20051;-77
2023/08/11 10:46:41;;;;;;;;;;;32.60;78.20;;;;;;5090362;28;20326;-81
2023/08/11 10:49:07;;;;;;;;;;;31.80;77.90;;;;;;5089359;28;19908;-82
2023/08/11 10:51:34;;;;;;;;;;;31.00;78.30;;;;;;5089387;28;20310;-83
2023/08/11 10:54:00;;;;;;;;;;;30.20;78.40;;;;;;5089909;28;19916;-83
2023/08/11 10:56:28;;;;;;;;;;;29.90;79.70;;;;;;5089224;28;19908;-77
2023/08/11 10:59:03;;;;;;;;;;;30.30;80.60;;;;;;5090211;28;19908;-81
2023/08/11 11:01:29;;;;;;;;;;;31.00;80.50;;;;;;5090047;28;20330;-86
2023/08/11 11:03:54;;;;;;;;;;;31.40;80.00;;;;;;5090133;28;19988;-84
2023/08/11 11:06:21;;;;;;;;;;;31.90;80.00;;;;;;5089766;28;19989;-83
2023/08/11 11:08:46;;;;;;;;;;;32.50;79.80;;;;;;5091360;28;19909;-85
2023/08/11 11:11:12;;;;;;;;;;;32.70;79.40;;;;;;5091168;28;19980;-85
2023/08/11 11:13:37;;;;;;;;;;;33.00;79.40;;;;;;5071322;28;19920;-84
2023/08/11 11:16:03;;;;;;;;;;;32.50;78.10;;;;;;5088329;28;19913;-79
2023/08/11 11:18:28;;;;;;;;;;;31.60;77.50;;;;;;5087196;28;19908;-80
2023/08/11 11:20:54;;;;;;;;;;;30.60;77.40;;;;;;5088255;28;20042;-77
2023/08/11 11:23:19;;;;;;;;;;;29.80;78.00;;;;;;5087828;28;20270;-77
2023/08/11 11:25:45;;;;;;;;;;;29.70;79.60;;;;;;5087720;28;19912;-80
2023/08/11 11:28:12;;;;;;;;;;;29.50;79.30;;;;;;5089010;28;19912;-76
2023/08/11 11:30:40;;;;;;;;;;;29.50;80.10;;;;;;5088578;28;19912;-78
2023/08/11 11:33:07;;;;;;;;;;;29.90;80.80;;;;;;5086945;28;20401;-77
2023/08/11 11:35:32;;;;;;;;;;;30.30;81.00;;;;;;5090585;28;19951;-78
2023/08/11 11:37:58;;;;;;;;;;;30.50;80.30;;;;;;5091442;28;19944;-77
2023/08/11 11:40:24;;;;;;;;;;;30.80;80.60;;;;;;5094242;28;19919;-78
2023/08/11 11:42:49;;;;;;;;;;;31.20;80.20;;;;;;5093957;28;19966;-78
2023/08/11 11:45:15;;;;;;;;;;;31.50;80.00;;;;;;5091410;28;19912;-75
2023/08/11 11:47:41;;;;;;;;;;;31.80;80.60;;;;;;5091523;28;19918;-78
2023/08/11 11:50:07;;;;;;;;;;;32.40;80.90;;;;;;5092345;28;19983;-78
2023/08/11 11:52:33;;;;;;;;;;;32.60;80.00;;;;;;5091075;28;20473;-78
2023/08/11 11:55:00;;;;;;;;;;;32.30;79.70;;;;;;5074121;28;19916;-81
2023/08/11 11:57:26;;;;;;;;;;;32.00;78.90;;;;;;5090687;28;20284;-77
2023/08/11 11:59:53;;;;;;;;;;;31.70;79.10;;;;;;5091535;28;19908;-82
2023/08/11 12:02:19;;;;;;;;;;;31.20;78.50;;;;;;5090972;28;19936;-78
2023/08/11 12:04:46;;;;;;;;;;;30.60;78.10;;;;;;5092041;28;19939;-80
2023/08/11 12:07:27;;;;;;;;;;;29.90;78.00;;;;;;5074421;28;20314;-82
2023/08/11 12:09:53;;;;;;;;;;;29.20;77.80;;;;;;5090713;28;19912;-78
2023/08/11 12:12:19;;;;;;;;;;;28.40;77.80;;;;;;5091934;28;19931;-78
2023/08/11 12:14:44;;;;;;;;;;;27.80;78.30;;;;;;5092654;28;19950;-84
2023/08/11 12:17:10;;;;;;;;;;;27.30;78.60;;;;;;5090788;28;19920;-69
2023/08/11 12:19:35;;;;;;;;;;;26.90;78.60;;;;;;5092635;28;19912;-82
2023/08/11 12:22:01;;;;;;;;;;;26.60;79.20;;;;;;5087276;28;20367;-81
2023/08/11 12:24:27;;;;;;;;;;;26.60;79.40;;;;;;5072188;28;20012;-80
2023/08/11 12:26:52;;;;;;;;;;;26.70;79.00;;;;;;5071784;28;19912;-81
2023/08/11 12:29:18;;;;;;;;;;;26.60;78.60;;;;;;5087510;28;19908;-80
2023/08/11 12:31:43;;;;;;;;;;;26.50;78.30;;;;;;5090889;28;19919;-81
2023/08/11 12:34:09;;;;;;;;;;;26.40;78.20;;;;;;5091226;28;19958;-80
2023/08/11 12:36:34;;;;;;;;;;;26.20;78.20;;;;;;5056428;28;20258;-81
2023/08/11 12:39:00;;;;;;;;;;;26.10;78.40;;;;;;5070196;28;19928;-80
2023/08/11 12:41:26;;;;;;;;;;;26.00;78.10;;;;;;5071573;28;20013;-80
2023/08/11 12:43:52;;;;;;;;;;;25.90;78.00;;;;;;5069473;28;19917;-80
2023/08/11 12:46:17;;;;;;;;;;;25.80;78.10;;;;;;5072974;28;19912;-75
2023/08/11 12:48:43;;;;;;;;;;;25.80;78.00;;;;;;5053726;28;19958;-77
2023/08/11 12:51:08;;;;;;;;;;;25.70;77.90;;;;;;5071064;28;19912;-76
2023/08/11 12:53:34;;;;;;;;;;;25.70;77.90;;;;;;5070764;28;19908;-79
2023/08/11 12:55:59;;;;;;;;;;;25.60;77.80;;;;;;5069678;28;20381;-81
2023/08/11 12:58:26;;;;;;;;;;;25.50;77.60;;;;;;5069801;28;19935;-82
2023/08/11 13:00:51;;;;;;;;;;;25.50;77.70;;;;;;5070715;28;19912;-79
2023/08/11 13:03:17;;;;;;;;;;;25.70;78.30;;;;;;5071042;28;19931;-79
2023/08/11 13:05:42;;;;;;;;;;;26.20;78.40;;;;;;5070934;28;19924;-81
2023/08/11 13:08:08;;;;;;;;;;;26.60;78.40;;;;;;5069114;28;20401;-80
2023/08/11 13:10:34;;;;;;;;;;;27.00;78.00;;;;;;5052648;28;19999;-80
2023/08/11 13:13:00;;;;;;;;;;;27.40;78.40;;;;;;5070610;28;19938;-82
2023/08/11 13:15:25;;;;;;;;;;;27.80;78.30;;;;;;5068989;28;20003;-79
2023/08/11 13:17:51;;;;;;;;;;;28.00;78.30;;;;;;5068178;28;20349;-77
2023/08/11 13:20:16;;;;;;;;;;;28.30;78.10;;;;;;5054462;28;19912;-82
2023/08/11 13:22:42;;;;;;;;;;;28.30;77.60;;;;;;5056759;28;20015;-82
2023/08/11 13:25:08;;;;;;;;;;;28.10;77.40;;;;;;5054528;28;19978;-82
2023/08/11 13:27:34;;;;;;;;;;;27.90;77.30;;;;;;5069934;28;20802;-79
2023/08/11 13:30:00;;;;;;;;;;;28.00;77.70;;;;;;5070238;28;19956;-81
2023/08/11 13:32:25;;;;;;;;;;;28.20;77.90;;;;;;5069524;28;19974;-79
2023/08/11 13:34:51;;;;;;;;;;;28.10;77.20;;;;;;5069266;28;19913;-81
2023/08/11 13:37:17;;;;;;;;;;;27.80;76.90;;;;;;5070634;28;20416;-79
2023/08/11 13:39:42;;;;;;;;;;;27.40;77.10;;;;;;5052288;28;19912;-77
2023/08/11 13:42:09;;;;;;;;;;;27.10;77.30;;;;;;5071528;28;20011;-80
2023/08/11 13:44:35;;;;;;;;;;;26.90;77.50;;;;;;5069114;28;19919;-78
2023/08/11 13:47:01;;;;;;;;;;;26.80;77.60;;;;;;5052088;28;19912;-80
2023/08/11 13:49:27;;;;;;;;;;;26.90;78.10;;;;;;5068614;28;19999;-82
2023/08/11 13:51:52;;;;;;;;;;;27.00;77.90;;;;;;5051589;28;19926;-79
2023/08/11 13:54:18;;;;;;;;;;;27.10;77.30;;;;;;5069976;28;19908;-79
2023/08/11 13:56:43;;;;;;;;;;;27.00;77.10;;;;;;5067954;28;19912;-79
2023/08/11 13:59:09;;;;;;;;;;;26.80;77.20;;;;;;5067328;28;19935;-79
2023/08/11 14:01:35;;;;;;;;;;;26.60;77.30;;;;;;5069581;28;19919;-79
2023/08/11 14:04:01;;;;;;;;;;;26.60;77.40;;;;;;5069346;28;19930;-80
2023/08/11 14:06:26;;;;;;;;;;;26.60;77.10;;;;;;5069751;28;19913;-80
2023/08/11 14:08:52;;;;;;;;;;;26.40;77.10;;;;;;5068695;28;19920;-79